Impacts TAF Board
For situational awareness. Not to be used for flight planning purposes.
IDs:

KTPA - Tampa Intl Arpt, FL, US

Issued at 1134 UTC 21 Feb 2019
Updated at 1327 UTC 21 Feb 2019
Potential Impact None Slight Moderate High
Time<<22/14Z 22/15Z 22/16Z 22/17Z 22/18Z 22/19Z 22/20Z 22/21Z 22/22Z 22/23Z 23/00Z 23/01Z 23/02Z
Type PRVL PRVL PRVL PRVL
VIS >6 >6 >6 >6
CIG -- -- -- --
Cover SCT SCT SCT SCT
FltCat VFR VFR VFR VFR
WX -- -- -- --
WDir 140 140 140 140
WSpd 8 8 8 8
WGst -- -- -- --
Raw TAF
KTPA 211134Z 2112/2218 13003KT P6SM SKC
  FM211400 15008KT P6SM BKN035
  FM211900 21006KT P6SM SCT050
  FM220000 VRB04KT P6SM BKN050
  FM220900 VRB03KT 6SM BR SCT050
  FM221400 14008KT P6SM SCT025


METAR Board
Radar Display
Forecast Discussion
For situational awareness. Not to be used for flight planning purposes.